Arroyo, Texas
Current Conditions -  °F | °C
As of 10:52 PM on Sunday 23 Nov 2014 (Local Time) from KHRL Reporting Station
Clear Clear  
Wind Chill: 61°   Ceiling: Unl
Heat Index: 61°   Visibility: 10mi
Dew Point: 58°   Wind: 5mph
Humidity: 90%   Direction: 150°SSE
Pressure: 29.74"   Gusts: NA
Location:  26.2089°N, 97.6849°W
Report Text: KHRL 240452Z 15004KT 10SM CLR 16/14 A2974 RMK AO2 SLP072 T01610144
Loading
Personal Weather Stations






























Interactive Weather Map New forecast layout! Learn more

10-Day Weather Forecast

Advertisements
Track Severe Weather on mobile